Jaiba, Brazil
Current Conditions -  °F | °C
As of 10:00 AM on Friday 24 Oct 2014 (Local Time) from SBMK Reporting Station
Clear Clear  
Wind Chill: 79°   Ceiling: Unl
Heat Index: 80°   Visibility: 6mi
Dew Point: 57°   Wind: 9mph
Humidity: 47%   Direction: 100°E
Pressure: 30.12"   Gusts: NA
Location:  15.34°S, 43.67°W
Report Text: SBMK 241200Z 10008KT 050V120 CAVOK 26/14 Q1020
Loading
Personal Weather Stations






























Interactive Weather Map
Tropical Storm Tracking
New forecast layout! Learn more

10-Day Weather Forecast

Advertisements
Track Severe Weather on mobile